Time;durP1;ratioP1;P1;durP2;ratioP2;P2;SDS_P1;SDS_P2;PMS_P1;PMS_P2;Temp;Humidity;BMP_temperature;BMP_pressure;BME280_temperature;BME280_humidity;BME280_pressure;Samples;Min_cycle;Max_cycle;Signal;HPM_P1;HPM_P2
2022/11/12 04:02:35;;;;;;;0.70;0.70;;;6.70;85.80;;;;;;5268129;22;20493;-74
2022/11/12 04:10:33;;;;;;;0.70;0.70;;;6.70;84.70;;;;;;5055416;28;20411;-74
2022/11/12 04:21:49;;;;;;;0.70;0.70;;;6.50;85.90;;;;;;5056881;28;20410;-74
2022/11/12 04:24:00;;;;;;;0.60;0.60;;;6.30;87.50;;;;;;5055193;28;20418;-74
2022/11/12 04:26:26;;;;;;;0.70;0.70;;;6.40;87.80;;;;;;5055028;28;20443;-74
2022/11/12 04:31:36;;;;;;;0.60;0.60;;;6.60;87.10;;;;;;5054609;28;20725;-74
2022/11/12 04:36:45;;;;;;;0.70;0.70;;;6.90;86.20;;;;;;5054354;28;20431;-74
2022/11/12 04:39:12;;;;;;;0.70;0.70;;;6.80;85.30;;;;;;5054496;28;20930;-73
2022/11/12 04:47:07;;;;;;;0.70;0.70;;;7.00;84.70;;;;;;5054747;28;20403;-74
2022/11/12 04:49:35;;;;;;;0.80;0.80;;;7.20;84.10;;;;;;5054603;28;20442;-74
2022/11/12 04:52:07;;;;;;;0.70;0.70;;;7.20;83.80;;;;;;5054479;28;20831;-74
2022/11/12 04:54:34;;;;;;;0.80;0.80;;;7.40;83.70;;;;;;5054430;28;20463;-74
2022/11/12 04:57:01;;;;;;;0.70;0.60;;;7.50;83.60;;;;;;5054408;28;20447;-74
2022/11/12 04:59:27;;;;;;;0.70;0.70;;;7.50;83.60;;;;;;5054418;28;20446;-74
2022/11/12 05:01:54;;;;;;;0.70;0.70;;;7.50;83.70;;;;;;5053973;28;20479;-74
2022/11/12 05:04:21;;;;;;;0.63;0.60;;;7.60;84.10;;;;;;5054286;28;20446;-74
2022/11/12 05:06:52;;;;;;;0.70;0.70;;;7.60;84.20;;;;;;5054243;28;20462;-74
2022/11/12 05:09:20;;;;;;;0.80;0.80;;;7.60;84.40;;;;;;5054232;28;20438;-74
2022/11/12 05:11:48;;;;;;;0.70;0.60;;;7.50;84.20;;;;;;5054130;28;20469;-74
2022/11/12 05:14:14;;;;;;;0.70;0.70;;;7.60;84.40;;;;;;5054062;28;20848;-74
2022/11/12 05:16:41;;;;;;;0.70;0.70;;;7.70;83.90;;;;;;5054075;28;20446;-74
2022/11/12 05:19:08;;;;;;;0.70;0.70;;;7.80;83.60;;;;;;5054052;28;20447;-74
2022/11/12 05:24:21;;;;;;;0.77;0.77;;;7.90;82.90;;;;;;5053782;28;20398;-74
2022/11/12 05:26:47;;;;;;;0.70;0.70;;;7.90;83.00;;;;;;5053917;28;20798;-74
2022/11/12 05:29:14;;;;;;;0.70;0.70;;;7.90;83.10;;;;;;5053853;28;20453;-74
2022/11/12 05:31:41;;;;;;;0.60;0.60;;;7.90;82.70;;;;;;5053754;28;20482;-74
2022/11/12 05:34:07;;;;;;;0.70;0.60;;;7.70;82.10;;;;;;5053381;28;20848;-74
2022/11/12 05:36:34;;;;;;;0.80;0.80;;;7.80;82.30;;;;;;5053739;28;20446;-74
2022/11/12 05:39:01;;;;;;;0.60;0.60;;;7.70;82.00;;;;;;5053399;28;20442;-74
2022/11/12 05:41:29;;;;;;;1.00;0.70;;;7.30;81.90;;;;;;5053583;28;20466;-74
2022/11/12 05:43:56;;;;;;;0.70;0.70;;;7.00;83.10;;;;;;5053145;28;20439;-74
2022/11/12 05:46:23;;;;;;;0.90;0.90;;;7.00;83.20;;;;;;5053277;28;20443;-74
2022/11/12 05:48:49;;;;;;;0.70;0.70;;;6.90;83.20;;;;;;5053280;28;20810;-74
2022/11/12 05:51:16;;;;;;;0.70;0.70;;;6.70;84.10;;;;;;5053443;28;20470;-73
2022/11/12 05:53:43;;;;;;;0.80;0.80;;;6.60;84.60;;;;;;5053451;28;20477;-74
2022/11/12 05:56:10;;;;;;;0.70;0.70;;;6.70;84.80;;;;;;5053496;28;20442;-74
2022/11/12 05:58:39;;;;;;;0.60;0.60;;;6.90;84.30;;;;;;5053735;28;20449;-74
2022/11/12 06:01:06;;;;;;;0.70;0.70;;;7.00;83.90;;;;;;5053179;28;20482;-74
2022/11/12 06:03:33;;;;;;;0.70;0.70;;;7.10;83.50;;;;;;5053394;28;20442;-72
2022/11/12 06:06:00;;;;;;;0.70;0.70;;;7.00;83.20;;;;;;5053366;28;20450;-74
2022/11/12 06:08:26;;;;;;;0.70;0.70;;;7.00;83.30;;;;;;5053360;28;20466;-74
2022/11/12 06:10:54;;;;;;;0.70;0.70;;;7.00;83.20;;;;;;5053116;28;20953;-74
2022/11/12 06:13:22;;;;;;;0.80;0.80;;;7.00;83.00;;;;;;5053234;28;20446;-74
2022/11/12 06:15:50;;;;;;;0.70;0.70;;;7.10;82.60;;;;;;5053216;28;20446;-74
2022/11/12 06:18:16;;;;;;;0.70;0.70;;;7.10;82.40;;;;;;5053250;28;20449;-74
2022/11/12 06:20:43;;;;;;;0.70;0.70;;;7.20;82.00;;;;;;5053149;28;20467;-74
2022/11/12 06:23:10;;;;;;;0.70;0.70;;;7.20;81.70;;;;;;5052900;28;20836;-74
2022/11/12 06:25:36;;;;;;;0.70;0.70;;;7.20;81.70;;;;;;5053184;28;20457;-74
2022/11/12 06:28:03;;;;;;;0.70;0.60;;;7.20;81.60;;;;;;5053139;28;20450;-74
2022/11/12 06:30:30;;;;;;;0.70;0.70;;;7.20;81.60;;;;;;5053082;28;20447;-74
2022/11/12 06:32:58;;;;;;;0.70;0.70;;;7.20;81.70;;;;;;5053141;28;20454;-75
2022/11/12 06:35:25;;;;;;;0.80;0.80;;;7.30;81.60;;;;;;5052986;28;20486;-74
2022/11/12 06:37:51;;;;;;;0.60;0.60;;;7.20;81.60;;;;;;5053100;28;20443;-74
2022/11/12 06:40:18;;;;;;;1.60;1.50;;;7.30;81.40;;;;;;5052694;28;20848;-71
2022/11/12 06:42:45;;;;;;;3.00;2.90;;;7.30;81.20;;;;;;5052936;28;20474;-74
2022/11/12 06:45:11;;;;;;;1.67;1.57;;;7.20;81.00;;;;;;5052983;28;20446;-74
2022/11/12 06:47:38;;;;;;;1.70;1.60;;;7.20;81.20;;;;;;5053017;28;20442;-74
2022/11/12 06:50:06;;;;;;;1.10;1.10;;;7.20;81.20;;;;;;5052977;28;20446;-75
2022/11/12 06:52:33;;;;;;;0.87;0.87;;;7.30;81.10;;;;;;5052843;28;20462;-74
2022/11/12 06:55:00;;;;;;;0.70;0.70;;;7.40;81.10;;;;;;5053768;28;20497;-70
2022/11/12 06:57:26;;;;;;;0.70;0.70;;;7.60;80.70;;;;;;5056926;28;20453;-74
2022/11/12 06:59:53;;;;;;;0.60;0.60;;;7.80;80.80;;;;;;5056789;28;20454;-74
2022/11/12 07:02:20;;;;;;;0.80;0.80;;;7.90;80.60;;;;;;5057292;28;20864;-75
2022/11/12 07:04:46;;;;;;;0.60;0.60;;;8.30;80.40;;;;;;5057261;28;20450;-75
2022/11/12 07:07:14;;;;;;;0.70;0.70;;;8.80;78.60;;;;;;5056750;28;20442;-73
2022/11/12 07:09:41;;;;;;;0.60;0.60;;;9.50;78.10;;;;;;5056623;28;20449;-75
2022/11/12 07:12:08;;;;;;;0.70;0.70;;;10.50;74.90;;;;;;5056639;28;20843;-76
2022/11/12 07:14:34;;;;;;;0.70;0.70;;;11.30;72.40;;;;;;5058098;28;20497;-76
2022/11/12 07:17:01;;;;;;;0.70;0.70;;;12.00;70.70;;;;;;5057971;28;20454;-76
2022/11/12 07:19:28;;;;;;;0.63;0.60;;;12.90;68.90;;;;;;5057375;28;20442;-77
2022/11/12 07:21:54;;;;;;;0.60;0.60;;;14.00;66.40;;;;;;5059567;28;20473;-77
2022/11/12 07:24:23;;;;;;;0.60;0.60;;;15.30;62.90;;;;;;5061198;28;20934;-77
2022/11/12 07:26:49;;;;;;;0.97;0.70;;;16.70;59.40;;;;;;5057925;28;20470;-76
2022/11/12 07:29:16;;;;;;;0.70;0.70;;;18.10;56.00;;;;;;5056775;28;20816;-76
2022/11/12 07:31:44;;;;;;;0.60;0.60;;;19.30;53.30;;;;;;5056789;28;20470;-75
2022/11/12 07:34:11;;;;;;;0.60;0.60;;;20.60;51.40;;;;;;5056668;28;20483;-76
2022/11/12 07:36:37;;;;;;;0.87;0.57;;;21.20;49.50;;;;;;5056644;28;20450;-76
2022/11/12 07:39:04;;;;;;;0.80;0.60;;;22.00;48.40;;;;;;5056688;28;20450;-76
2022/11/12 07:41:32;;;;;;;0.60;0.60;;;23.10;46.70;;;;;;5056533;28;20471;-76
2022/11/12 07:43:59;;;;;;;2.30;0.60;;;23.70;45.00;;;;;;5056746;28;20514;-76
2022/11/12 07:46:27;;;;;;;0.70;0.60;;;24.70;43.90;;;;;;5056406;28;20457;-76
2022/11/12 07:48:55;;;;;;;0.60;0.60;;;25.70;42.60;;;;;;5056176;28;20443;-77
2022/11/12 07:51:24;;;;;;;0.60;0.60;;;26.50;40.60;;;;;;5057684;28;20479;-77
2022/11/12 07:53:52;;;;;;;0.60;0.60;;;25.70;41.10;;;;;;5059727;28;20461;-77
2022/11/12 07:56:21;;;;;;;0.60;0.60;;;25.10;42.10;;;;;;5059988;28;20450;-78
2022/11/12 07:58:49;;;;;;;0.60;0.60;;;25.50;42.00;;;;;;5059468;28;20442;-77
2022/11/12 08:01:24;;;;;;;0.60;0.50;;;26.30;41.10;;;;;;5059590;28;20513;-77
2022/11/12 08:03:50;;;;;;;0.60;0.50;;;26.60;40.60;;;;;;5060025;28;20434;-77
2022/11/12 08:06:17;;;;;;;0.70;0.60;;;26.40;40.70;;;;;;5058473;28;20450;-77
2022/11/12 08:08:44;;;;;;;0.70;0.70;;;25.00;41.80;;;;;;5059202;28;20469;-77
2022/11/12 08:11:10;;;;;;;0.60;0.60;;;24.60;43.30;;;;;;5058983;28;20482;-77
2022/11/12 08:13:37;;;;;;;0.60;0.60;;;22.90;44.60;;;;;;5058190;28;20972;-77
2022/11/12 08:16:06;;;;;;;0.70;0.70;;;21.00;47.70;;;;;;5057547;28;20446;-77
2022/11/12 08:18:33;;;;;;;1.00;0.70;;;19.20;51.70;;;;;;5057509;28;20451;-77
2022/11/12 08:21:00;;;;;;;0.60;0.60;;;18.00;54.60;;;;;;5057607;28;20473;-77
2022/11/12 08:23:27;;;;;;;0.60;0.60;;;16.20;58.80;;;;;;5058481;28;20976;-78
2022/11/12 08:25:57;;;;;;;0.70;0.63;;;14.50;63.40;;;;;;5059100;28;20450;-77
2022/11/12 08:28:24;;;;;;;0.60;0.60;;;13.60;66.80;;;;;;5058423;28;20446;-79
2022/11/12 08:30:51;;;;;;;0.67;0.60;;;12.90;69.30;;;;;;5055242;28;20474;-78
2022/11/12 08:33:19;;;;;;;0.70;0.70;;;12.40;71.50;;;;;;5055045;28;20451;-78
2022/11/12 08:35:46;;;;;;;0.70;0.70;;;12.00;72.30;;;;;;5054639;28;20478;-78
2022/11/12 08:38:13;;;;;;;0.77;0.77;;;11.60;73.90;;;;;;5054906;28;20857;-78
2022/11/12 08:40:40;;;;;;;0.70;0.70;;;11.40;74.90;;;;;;5054783;28;20545;-79
2022/11/12 08:43:08;;;;;;;0.80;0.80;;;11.10;76.00;;;;;;5054808;28;20481;-79
2022/11/12 08:45:37;;;;;;;1.07;1.00;;;11.10;76.70;;;;;;5055333;28;20451;-75
2022/11/12 08:48:06;;;;;;;0.70;0.70;;;11.10;76.90;;;;;;5055289;28;20454;-75
2022/11/12 08:50:34;;;;;;;0.70;0.70;;;10.70;78.00;;;;;;5055169;28;20957;-75
2022/11/12 08:53:02;;;;;;;0.80;0.80;;;10.30;79.60;;;;;;5055254;28;20446;-75
2022/11/12 08:55:29;;;;;;;0.70;0.67;;;10.10;79.90;;;;;;5054172;28;21000;-76
2022/11/12 08:58:00;;;;;;;0.70;0.70;;;10.10;82.00;;;;;;5054664;28;20870;-75
2022/11/12 09:00:28;;;;;;;0.70;0.70;;;10.20;80.60;;;;;;5056082;28;20430;-75
2022/11/12 09:02:54;;;;;;;0.60;0.60;;;10.00;81.00;;;;;;5055352;28;20455;-78
2022/11/12 09:05:21;;;;;;;0.70;0.60;;;10.10;81.40;;;;;;5055366;28;20446;-75
2022/11/12 09:07:57;;;;;;;0.60;0.60;;;10.00;80.50;;;;;;5054543;28;20466;-78
2022/11/12 09:10:24;;;;;;;0.60;0.60;;;10.00;81.40;;;;;;5053885;28;20526;-77
2022/11/12 09:12:51;;;;;;;0.60;0.60;;;10.10;82.20;;;;;;5054082;28;20443;-77
2022/11/12 09:15:18;;;;;;;0.63;0.60;;;10.40;80.60;;;;;;5053994;28;20582;-77
2022/11/12 09:17:45;;;;;;;0.80;0.73;;;10.70;80.90;;;;;;5053345;28;20453;-77
2022/11/12 09:20:12;;;;;;;0.70;0.70;;;10.70;80.40;;;;;;5053803;28;20454;-78
2022/11/12 09:22:38;;;;;;;0.60;0.60;;;10.70;79.30;;;;;;5054160;28;20470;-76
2022/11/12 09:25:07;;;;;;;0.80;0.70;;;10.80;79.70;;;;;;5055286;28;20438;-75
2022/11/12 09:27:34;;;;;;;0.70;0.70;;;11.00;83.90;;;;;;5053528;28;20842;-74
2022/11/12 09:30:01;;;;;;;0.73;0.70;;;11.00;81.00;;;;;;5053854;28;20458;-74
2022/11/12 09:32:28;;;;;;;0.60;0.50;;;11.20;81.20;;;;;;5053696;28;20459;-75
2022/11/12 09:34:54;;;;;;;0.60;0.60;;;11.30;80.20;;;;;;5053649;28;20529;-75
2022/11/12 09:37:21;;;;;;;0.60;0.60;;;11.30;79.20;;;;;;5053824;28;20446;-75
2022/11/12 09:39:48;;;;;;;0.60;0.60;;;11.30;79.30;;;;;;5053369;28;20938;-73
2022/11/12 09:42:19;;;;;;;0.60;0.60;;;11.40;79.20;;;;;;5053613;28;20806;-74
2022/11/12 09:44:54;;;;;;;1.17;1.07;;;11.30;78.80;;;;;;5053585;28;20427;-75
2022/11/12 09:47:27;;;;;;;0.73;0.70;;;11.10;79.50;;;;;;5053650;28;20437;-76
2022/11/12 09:50:01;;;;;;;0.60;0.60;;;11.20;79.90;;;;;;5053585;28;20806;-75
2022/11/12 09:52:30;;;;;;;0.80;0.80;;;11.00;80.10;;;;;;5053134;28;20980;-75
2022/11/12 09:55:04;;;;;;;0.60;0.60;;;11.10;80.60;;;;;;5053133;28;20482;-75
2022/11/12 09:57:32;;;;;;;0.70;0.70;;;11.00;80.90;;;;;;5053490;28;20426;-74
2022/11/12 10:00:01;;;;;;;0.70;0.70;;;10.90;81.80;;;;;;5053601;28;20439;-74
2022/11/12 10:02:34;;;;;;;0.70;0.70;;;10.70;82.50;;;;;;5052907;28;20482;-74
2022/11/12 10:05:17;;;;;;;0.60;0.60;;;10.70;83.70;;;;;;5053394;28;20427;-73
2022/11/12 10:07:56;;;;;;;0.70;0.70;;;10.80;83.60;;;;;;5053395;28;20427;-74
2022/11/12 10:10:34;;;;;;;0.70;0.70;;;10.80;83.10;;;;;;5052933;28;20438;-74
2022/11/12 10:13:15;;;;;;;0.70;0.70;;;10.80;82.50;;;;;;5052829;28;20439;-74
2022/11/12 10:19:08;;;;;;;0.70;0.70;;;11.00;82.90;;;;;;5053582;28;20410;-73
2022/11/12 10:21:41;;;;;;;0.70;0.70;;;11.10;84.00;;;;;;5053150;28;20577;-73
2022/11/12 10:24:10;;;;;;;0.70;0.70;;;11.00;81.90;;;;;;5053972;28;20435;-71
2022/11/12 10:26:38;;;;;;;0.70;0.70;;;10.90;80.90;;;;;;5053065;28;20618;-72
2022/11/12 10:29:15;;;;;;;0.60;0.60;;;10.90;81.80;;;;;;5053968;28;20446;-71
2022/11/12 10:31:42;;;;;;;0.70;0.70;;;11.00;82.30;;;;;;5057090;28;20992;-71
2022/11/12 10:34:16;;;;;;;0.70;0.70;;;11.10;81.70;;;;;;5057119;28;20451;-71
2022/11/12 10:36:46;;;;;;;0.60;0.60;;;11.00;81.40;;;;;;5058042;28;20475;-73
2022/11/12 10:39:31;;;;;;;0.73;0.73;;;11.30;81.40;;;;;;5063431;28;20805;-73
2022/11/12 10:42:07;;;;;;;0.60;0.60;;;11.50;80.80;;;;;;5062838;28;20462;-73
2022/11/12 10:44:35;;;;;;;0.70;0.70;;;11.80;80.60;;;;;;5061431;28;20438;-73
2022/11/12 10:47:21;;;;;;;0.70;0.70;;;11.70;79.90;;;;;;5061976;28;20510;-73
2022/11/12 10:50:02;;;;;;;0.60;0.60;;;11.60;80.40;;;;;;5061352;28;20913;-71
2022/11/12 10:52:29;;;;;;;0.60;0.60;;;11.60;79.60;;;;;;5061539;28;20470;-73
2022/11/12 10:55:05;;;;;;;0.70;0.60;;;11.80;77.50;;;;;;5061405;28;20489;-73
2022/11/12 10:57:32;;;;;;;0.70;0.70;;;11.90;76.50;;;;;;5061909;28;20430;-73
2022/11/12 11:00:17;;;;;;;0.67;0.67;;;11.70;76.50;;;;;;5061073;28;20453;-75
2022/11/12 11:02:49;;;;;;;0.60;0.60;;;12.00;76.50;;;;;;5059445;28;21047;-74
2022/11/12 11:05:34;;;;;;;0.60;0.60;;;12.20;74.10;;;;;;5056326;28;20910;-74
2022/11/12 11:08:01;;;;;;;0.60;0.60;;;12.30;74.20;;;;;;5056813;28;20434;-74
2022/11/12 11:10:30;;;;;;;0.60;0.50;;;12.30;73.30;;;;;;5056372;28;20446;-74
2022/11/12 11:13:16;;;;;;;0.60;0.60;;;12.60;73.20;;;;;;5056483;28;20450;-74
2022/11/12 11:15:58;;;;;;;1.00;0.67;;;12.80;73.20;;;;;;5056390;28;20466;-75
2022/11/12 11:18:25;;;;;;;0.70;0.70;;;12.90;76.70;;;;;;5056125;28;20928;-73
2022/11/12 11:21:01;;;;;;;0.80;0.70;;;13.10;77.30;;;;;;5055981;28;20999;-75
2022/11/12 11:23:34;;;;;;;0.60;0.60;;;13.40;76.90;;;;;;5056351;28;20427;-74
2022/11/12 11:26:12;;;;;;;0.60;0.60;;;13.40;76.30;;;;;;5056262;28;20434;-75
2022/11/12 11:28:46;;;;;;;0.70;0.60;;;13.50;75.70;;;;;;5056494;28;20431;-74
2022/11/12 11:31:21;;;;;;;0.70;0.70;;;13.20;76.30;;;;;;5056151;28;20470;-75
2022/11/12 11:33:57;;;;;;;0.70;0.60;;;13.10;78.10;;;;;;5056041;28;20433;-75
2022/11/12 11:36:32;;;;;;;0.63;0.63;;;13.10;77.00;;;;;;5055928;28;20848;-75
2022/11/12 11:39:03;;;;;;;0.80;0.80;;;13.40;77.40;;;;;;5056212;28;20437;-76
2022/11/12 11:41:52;;;;;;;0.77;0.77;;;13.40;75.90;;;;;;5055943;28;20466;-75
2022/11/12 11:44:30;;;;;;;1.07;0.90;;;13.10;77.30;;;;;;5061149;28;20491;-75
2022/11/12 11:47:15;;;;;;;1.17;0.80;;;13.20;77.50;;;;;;5061279;28;20430;-75
2022/11/12 11:50:19;;;;;;;0.77;0.77;;;13.20;76.90;;;;;;5056815;28;20423;-73
2022/11/12 11:52:49;;;;;;;0.70;0.70;;;13.20;76.50;;;;;;5050937;28;20470;-75
2022/11/12 11:55:34;;;;;;;0.70;0.70;;;13.40;76.60;;;;;;5055864;28;20500;-75
2022/11/12 11:58:11;;;;;;;0.70;0.70;;;13.90;75.30;;;;;;5055335;28;20968;-75
2022/11/12 12:00:47;;;;;;;0.77;0.77;;;14.70;72.50;;;;;;5055982;28;20898;-76
2022/11/12 12:03:30;;;;;;;0.80;0.80;;;16.00;69.90;;;;;;5062392;28;20932;-75
2022/11/12 12:06:13;;;;;;;0.80;0.80;;;16.90;65.60;;;;;;5064469;28;20422;-75
2022/11/12 12:08:53;;;;;;;1.00;0.90;;;17.80;64.10;;;;;;5064917;28;20435;-75
2022/11/12 12:11:27;;;;;;;0.70;0.70;;;18.80;61.50;;;;;;5063022;28;20525;-74
2022/11/12 12:14:10;;;;;;;0.70;0.70;;;18.70;61.00;;;;;;5066401;28;20438;-75
2022/11/12 12:16:48;;;;;;;0.70;0.70;;;18.90;60.50;;;;;;5069791;28;20534;-74
2022/11/12 12:19:28;;;;;;;1.10;1.10;;;18.50;61.20;;;;;;5063104;28;20431;-75
2022/11/12 12:21:56;;;;;;;0.83;0.80;;;18.00;62.30;;;;;;5055097;28;20524;-74
2022/11/12 12:24:29;;;;;;;0.90;0.90;;;17.80;63.40;;;;;;5055023;28;20450;-75
2022/11/12 12:27:02;;;;;;;0.70;0.70;;;17.50;63.40;;;;;;5055101;28;20439;-75
2022/11/12 12:29:33;;;;;;;0.60;0.60;;;17.60;64.10;;;;;;5055064;28;20526;-75
2022/11/12 12:32:06;;;;;;;0.80;0.80;;;17.80;63.30;;;;;;5054953;28;20463;-76
2022/11/12 12:34:38;;;;;;;1.67;0.87;;;18.10;62.30;;;;;;5055003;28;20517;-76
2022/11/12 12:37:14;;;;;;;0.80;0.80;;;18.70;61.10;;;;;;5055724;28;20498;-75
2022/11/12 12:39:51;;;;;;;0.70;0.70;;;19.40;60.00;;;;;;5060474;28;20426;-76
2022/11/12 12:42:22;;;;;;;0.70;0.70;;;19.80;57.60;;;;;;5061353;28;20476;-75
2022/11/12 12:45:00;;;;;;;0.70;0.70;;;19.80;57.50;;;;;;5060434;28;20828;-76
2022/11/12 12:47:30;;;;;;;0.70;0.70;;;20.30;56.50;;;;;;5060150;28;20430;-76
2022/11/12 12:50:00;;;;;;;0.80;0.80;;;20.30;56.30;;;;;;5060279;28;20947;-77
2022/11/12 12:52:27;;;;;;;0.70;0.67;;;20.10;54.50;;;;;;5062036;28;20905;-76
2022/11/12 12:54:58;;;;;;;0.83;0.83;;;19.50;54.80;;;;;;5061859;28;20486;-76
2022/11/12 12:57:29;;;;;;;0.77;0.77;;;19.50;55.30;;;;;;5060960;28;20443;-75
2022/11/12 13:00:27;;;;;;;2.83;0.70;;;19.00;54.80;;;;;;5058643;28;20446;-72
2022/11/12 13:02:54;;;;;;;0.90;0.90;;;18.90;55.50;;;;;;5057774;28;20451;-74
2022/11/12 13:05:31;;;;;;;0.80;0.80;;;18.70;56.50;;;;;;5060455;28;20439;-75
2022/11/12 13:08:02;;;;;;;1.00;1.00;;;18.40;57.20;;;;;;5061073;28;20480;-75
2022/11/12 13:10:49;;;;;;;0.70;0.70;;;18.40;58.00;;;;;;5062107;28;20430;-75
2022/11/12 13:13:33;;;;;;;0.90;0.70;;;19.00;57.30;;;;;;5061172;28;20419;-75
2022/11/12 13:16:02;;;;;;;0.70;0.70;;;19.70;55.20;;;;;;5060434;28;20837;-75
2022/11/12 13:18:59;;;;;;;0.70;0.70;;;20.20;53.70;;;;;;5060235;28;20467;-76
2022/11/12 13:21:28;;;;;;;0.60;0.60;;;20.70;52.60;;;;;;5061549;28;20466;-75
2022/11/12 13:24:09;;;;;;;0.80;0.73;;;21.00;52.40;;;;;;5061055;28;20451;-75
2022/11/12 13:26:51;;;;;;;0.60;0.60;;;20.90;52.10;;;;;;5062137;28;20439;-75
2022/11/12 13:29:23;;;;;;;1.30;0.77;;;21.00;52.80;;;;;;5062029;28;20510;-75
2022/11/12 13:32:10;;;;;;;0.70;0.70;;;21.10;52.10;;;;;;5059836;28;20478;-74
2022/11/12 13:34:37;;;;;;;0.77;0.77;;;21.20;52.00;;;;;;5059560;28;20450;-74
2022/11/12 13:37:06;;;;;;;0.70;0.70;;;21.20;52.10;;;;;;5058932;28;20486;-74
2022/11/12 13:39:35;;;;;;;0.70;0.70;;;20.50;52.90;;;;;;5059211;28;20806;-74
2022/11/12 13:44:58;;;;;;;0.70;0.70;;;19.90;54.20;;;;;;5059901;28;20452;-74
2022/11/12 13:47:28;;;;;;;0.70;0.70;;;19.10;55.90;;;;;;5058211;28;20952;-75
2022/11/12 13:49:59;;;;;;;0.70;0.70;;;18.70;57.30;;;;;;5059354;28;20505;-75
2022/11/12 13:52:29;;;;;;;0.70;0.70;;;18.30;58.20;;;;;;5059024;28;20488;-75
2022/11/12 13:55:03;;;;;;;0.83;0.83;;;17.90;59.40;;;;;;5058458;28;20454;-75
2022/11/12 13:57:32;;;;;;;0.80;0.80;;;17.50;60.70;;;;;;5059151;28;20486;-75
2022/11/12 14:00:29;;;;;;;0.70;0.70;;;17.10;61.70;;;;;;5059431;28;20462;-76
2022/11/12 14:03:00;;;;;;;0.90;0.90;;;16.60;63.30;;;;;;4997765;28;20476;-76
2022/11/12 14:05:29;;;;;;;0.70;0.70;;;16.50;63.80;;;;;;5046928;28;20478;-76
2022/11/12 14:08:23;;;;;;;0.70;0.70;;;16.70;63.60;;;;;;5059874;28;20461;-76
2022/11/12 14:11:05;;;;;;;0.90;0.80;;;16.80;63.20;;;;;;5054764;28;20462;-76
2022/11/12 14:13:52;;;;;;;0.90;0.90;;;16.90;63.20;;;;;;5057613;28;20438;-75
2022/11/12 14:16:37;;;;;;;1.00;1.00;;;16.90;63.40;;;;;;5057281;28;20470;-75
2022/11/12 14:19:43;;;;;;;0.80;0.80;;;16.80;63.60;;;;;;5056017;28;20968;-76
2022/11/12 14:22:15;;;;;;;1.10;1.03;;;16.80;63.90;;;;;;5046108;28;20478;-75
2022/11/12 14:24:45;;;;;;;1.13;1.00;;;16.50;64.60;;;;;;5058753;28;20518;-74
2022/11/12 14:27:33;;;;;;;0.80;0.80;;;16.40;65.30;;;;;;5060076;28;20954;-76
2022/11/12 14:30:13;;;;;;;0.80;0.80;;;16.00;66.40;;;;;;5059375;28;20441;-75
2022/11/12 14:32:41;;;;;;;0.80;0.80;;;15.70;67.50;;;;;;5059051;28;20473;-76
2022/11/12 14:35:36;;;;;;;0.80;0.80;;;15.40;68.20;;;;;;5058702;28;20453;-73
2022/11/12 14:38:09;;;;;;;0.97;0.80;;;15.40;68.40;;;;;;5023413;28;20451;-74
2022/11/12 14:40:43;;;;;;;0.83;0.83;;;15.20;69.00;;;;;;5059407;28;20438;-74
2022/11/12 14:43:24;;;;;;;1.17;1.00;;;15.00;69.90;;;;;;5060639;28;20458;-74
2022/11/12 14:45:52;;;;;;;0.80;0.80;;;14.80;70.60;;;;;;5059859;28;20431;-75
2022/11/12 14:48:19;;;;;;;0.90;0.80;;;14.80;70.70;;;;;;5062344;28;20447;-75
2022/11/12 14:50:49;;;;;;;1.50;0.93;;;14.80;70.70;;;;;;5061408;28;20462;-75
2022/11/12 14:53:21;;;;;;;0.83;0.80;;;14.60;71.10;;;;;;5058762;28;20452;-75
2022/11/12 14:55:52;;;;;;;1.00;1.00;;;14.70;71.30;;;;;;5059649;28;20442;-75
2022/11/12 14:58:21;;;;;;;0.90;0.90;;;14.60;71.40;;;;;;5059036;28;20435;-74
2022/11/12 15:00:50;;;;;;;1.00;0.90;;;14.60;71.60;;;;;;5059317;28;20476;-74
2022/11/12 15:03:20;;;;;;;1.00;1.00;;;14.60;71.90;;;;;;5060104;28;20937;-74
2022/11/12 15:05:55;;;;;;;1.00;1.00;;;14.60;72.10;;;;;;5060403;28;20431;-75
2022/11/12 15:08:30;;;;;;;0.90;0.90;;;14.60;72.40;;;;;;5059426;28;20454;-75
2022/11/12 15:11:19;;;;;;;1.00;1.00;;;14.50;72.60;;;;;;5059053;28;20470;-75
2022/11/12 15:13:46;;;;;;;0.90;0.90;;;14.50;72.60;;;;;;5058891;28;20435;-75
2022/11/12 15:16:19;;;;;;;1.03;0.93;;;14.50;72.70;;;;;;5060573;28;20486;-75
2022/11/12 15:19:14;;;;;;;1.20;1.00;;;14.40;72.90;;;;;;5063448;28;20426;-75
2022/11/12 15:21:46;;;;;;;1.20;1.10;;;14.40;73.10;;;;;;5061398;28;20475;-76
2022/11/12 15:24:18;;;;;;;1.00;1.00;;;14.40;73.30;;;;;;5062883;28;20443;-76
2022/11/12 15:26:49;;;;;;;1.00;1.00;;;14.30;73.60;;;;;;5063697;28;20795;-75
2022/11/12 15:29:24;;;;;;;1.00;1.00;;;14.20;73.70;;;;;;5062934;28;20461;-75
2022/11/12 15:31:52;;;;;;;0.90;0.90;;;14.20;73.70;;;;;;5062998;28;20466;-76
2022/11/12 15:34:46;;;;;;;1.20;1.20;;;14.20;73.90;;;;;;5062840;28;20942;-75
2022/11/12 15:37:24;;;;;;;1.07;1.07;;;14.10;73.90;;;;;;5063479;28;20493;-74
2022/11/12 15:39:54;;;;;;;1.07;1.07;;;14.00;74.20;;;;;;5062927;28;20437;-74
2022/11/12 15:42:27;;;;;;;1.00;1.00;;;14.00;74.30;;;;;;5063210;28;20473;-75
2022/11/12 15:44:59;;;;;;;1.50;1.40;;;13.90;74.30;;;;;;5063025;28;20941;-75
2022/11/12 15:47:25;;;;;;;1.10;1.10;;;13.90;74.50;;;;;;5063462;28;20422;-75
2022/11/12 15:49:54;;;;;;;1.20;1.20;;;13.80;74.70;;;;;;5063943;28;20817;-73
2022/11/12 15:52:21;;;;;;;1.33;1.27;;;13.80;74.80;;;;;;5063109;28;20471;-73
2022/11/12 15:54:48;;;;;;;1.20;1.20;;;13.70;75.00;;;;;;5063510;28;20454;-75
2022/11/12 15:57:17;;;;;;;1.10;1.10;;;13.70;75.20;;;;;;5063455;28;20485;-74
2022/11/12 15:59:49;;;;;;;1.00;1.00;;;13.60;75.40;;;;;;5063499;28;20447;-73
2022/11/12 16:02:16;;;;;;;1.40;1.30;;;13.50;75.60;;;;;;5063571;28;20513;-73
2022/11/12 16:04:42;;;;;;;1.23;1.20;;;13.40;75.80;;;;;;5064153;28;20994;-74
2022/11/12 16:07:09;;;;;;;1.17;1.17;;;13.40;75.90;;;;;;5064540;28;20445;-74
2022/11/12 16:09:37;;;;;;;1.20;1.20;;;13.30;76.20;;;;;;5064195;28;20839;-74
2022/11/12 16:12:04;;;;;;;1.40;1.30;;;13.20;76.40;;;;;;5062613;28;20505;-74
2022/11/12 16:14:31;;;;;;;1.10;1.10;;;13.20;76.40;;;;;;5062777;28;20459;-74
2022/11/12 16:16:59;;;;;;;1.10;1.10;;;13.10;76.50;;;;;;5055625;28;20490;-73
2022/11/12 16:19:26;;;;;;;1.10;1.10;;;13.00;76.80;;;;;;5055088;28;20461;-74
2022/11/12 16:21:52;;;;;;;1.03;0.97;;;12.90;77.00;;;;;;5056121;28;20467;-72
2022/11/12 16:24:19;;;;;;;1.30;1.30;;;12.90;77.00;;;;;;5060640;28;20454;-74
2022/11/12 16:26:46;;;;;;;1.23;1.13;;;12.80;77.00;;;;;;5060174;28;20446;-73
2022/11/12 16:29:13;;;;;;;1.00;1.00;;;12.80;77.10;;;;;;5059606;28;20529;-74
2022/11/12 16:31:43;;;;;;;1.00;1.00;;;12.70;77.20;;;;;;5056939;28;20857;-73
2022/11/12 16:34:11;;;;;;;0.93;0.90;;;12.70;77.30;;;;;;5054685;28;20450;-74
2022/11/12 16:36:39;;;;;;;1.37;1.30;;;12.60;77.40;;;;;;5054952;28;20482;-72
2022/11/12 16:39:06;;;;;;;0.90;0.90;;;12.50;77.30;;;;;;5054827;28;20845;-74
2022/11/12 16:41:32;;;;;;;0.90;0.90;;;12.50;77.50;;;;;;5054726;28;20474;-74
2022/11/12 16:43:59;;;;;;;0.80;0.80;;;12.40;77.70;;;;;;5054448;28;20816;-74
2022/11/12 16:46:30;;;;;;;1.10;1.10;;;12.40;77.70;;;;;;5054661;28;20451;-75
2022/11/12 16:48:57;;;;;;;1.03;1.03;;;12.30;78.00;;;;;;5054339;28;20780;-73
2022/11/12 16:51:25;;;;;;;1.03;1.03;;;12.20;77.90;;;;;;5054632;28;20477;-72
2022/11/12 16:53:52;;;;;;;0.90;0.90;;;12.20;77.70;;;;;;5054806;28;20446;-72
2022/11/12 16:56:20;;;;;;;1.23;1.23;;;12.20;77.90;;;;;;5054428;28;20450;-72
2022/11/12 16:58:48;;;;;;;2.40;1.10;;;12.10;77.90;;;;;;5054458;28;20443;-72
2022/11/12 17:01:23;;;;;;;1.10;1.10;;;12.10;78.00;;;;;;5054179;28;20482;-72
2022/11/12 17:03:51;;;;;;;1.07;1.07;;;12.00;78.10;;;;;;5054132;28;20431;-72
2022/11/12 17:06:17;;;;;;;1.17;1.10;;;12.00;78.20;;;;;;5054586;28;20442;-72
2022/11/12 17:08:47;;;;;;;1.20;1.10;;;11.90;78.50;;;;;;5053823;28;20443;-72
2022/11/12 17:11:14;;;;;;;1.30;1.20;;;11.90;78.40;;;;;;5053906;28;20993;-72
2022/11/12 17:13:42;;;;;;;2.27;1.10;;;11.80;78.20;;;;;;5054278;28;20804;-72
2022/11/12 17:16:10;;;;;;;1.27;1.20;;;11.80;78.30;;;;;;5054501;28;20443;-72
2022/11/12 17:18:36;;;;;;;1.10;1.10;;;11.80;78.60;;;;;;5054062;28;20482;-72
2022/11/12 17:21:11;;;;;;;1.20;1.20;;;11.70;78.60;;;;;;5054005;28;20561;-72
2022/11/12 17:23:39;;;;;;;1.07;1.07;;;11.70;78.60;;;;;;5054116;28;20438;-72
2022/11/12 17:26:10;;;;;;;1.00;1.00;;;11.60;78.80;;;;;;5053990;28;20454;-72
2022/11/12 17:28:37;;;;;;;0.90;0.90;;;11.60;78.90;;;;;;5054263;28;20434;-72
2022/11/12 17:31:05;;;;;;;0.97;0.97;;;11.60;78.80;;;;;;5053826;28;20881;-71
2022/11/12 17:33:32;;;;;;;1.00;1.00;;;11.50;78.90;;;;;;5053880;28;20451;-72
2022/11/12 17:36:03;;;;;;;0.90;0.90;;;11.50;79.00;;;;;;5053733;28;20934;-73
2022/11/12 17:38:30;;;;;;;0.97;0.97;;;11.50;79.00;;;;;;5053236;28;20478;-72
2022/11/12 17:40:57;;;;;;;1.10;1.10;;;11.40;78.90;;;;;;5053496;28;20471;-71
2022/11/12 17:43:25;;;;;;;1.27;1.27;;;11.40;79.10;;;;;;5053669;28;20446;-72